Bingley, United Kingdom
Current Conditions -  °F | °C
As of 11:20 PM on Thursday 27 Nov 2014 (Local Time) from EGNM Reporting Station
Moderate Fog Moderate Fog  
Wind Chill: 41°   Ceiling: Unl
Heat Index: 41°   Visibility: 0.12mi
Dew Point: 41°   Wind: 2mph
Humidity: 100%   Direction: 60°ENE
Pressure: 29.62"   Gusts: NA
Location:  53.85°N, 1.84°W
Report Text: EGNM 272320Z 06002KT 0200 R32/0275 FG NSC 05/05 Q1003
Loading
Personal Weather Stations






























Interactive Weather Map New forecast layout! Learn more

10-Day Weather Forecast

Advertisements
Track Severe Weather on mobile